Time;durP1;ratioP1;P1;durP2;ratioP2;P2;SDS_P1;SDS_P2;PMS_P1;PMS_P2;Temp;Humidity;BMP_temperature;BMP_pressure;BME280_temperature;BME280_humidity;BME280_pressure;Samples;Min_cycle;Max_cycle;Signal;HPM_P1;HPM_P2
2021/07/28 00:01:48;;;;;;;3.10;1.13;;;;;;;;;;5087638;28;20383;-42
2021/07/28 00:04:13;;;;;;;4.72;1.35;;;;;;;;;;5072308;28;20451;-42
2021/07/28 00:06:39;;;;;;;2.05;1.30;;;;;;;;;;5072424;28;20158;-42
2021/07/28 00:09:04;;;;;;;5.50;1.30;;;;;;;;;;5072061;28;20027;-42
2021/07/28 00:11:30;;;;;;;1.55;1.00;;;;;;;;;;5072566;28;20036;-41
2021/07/28 00:13:55;;;;;;;2.92;1.33;;;;;;;;;;5072506;28;20025;-42
2021/07/28 00:16:21;;;;;;;3.47;1.35;;;;;;;;;;5072401;28;20429;-42
2021/07/28 00:19:31;;;;;;;3.13;1.50;;;;;;;;;;5072200;28;20021;-42
2021/07/28 00:24:19;;;;;;;2.97;1.05;;;;;;;;;;5072339;28;20029;-42
2021/07/28 00:26:44;;;;;;;1.85;1.40;;;;;;;;;;5071216;28;20513;-42
2021/07/28 00:29:10;;;;;;;2.92;1.17;;;;;;;;;;5072072;28;20522;-44
2021/07/28 00:31:35;;;;;;;2.05;1.15;;;;;;;;;;5072020;28;20044;-42
2021/07/28 00:34:00;;;;;;;4.05;1.25;;;;;;;;;;5070634;28;20040;-42
2021/07/28 00:36:26;;;;;;;1.65;1.10;;;;;;;;;;5070841;28;20023;-42
2021/07/28 00:38:52;;;;;;;3.13;1.20;;;;;;;;;;5070642;28;20029;-42
2021/07/28 00:41:17;;;;;;;3.25;1.05;;;;;;;;;;5072283;28;20055;-41
2021/07/28 00:43:42;;;;;;;4.25;1.00;;;;;;;;;;5071873;28;20112;-42
2021/07/28 00:46:08;;;;;;;1.73;1.13;;;;;;;;;;5072148;28;20024;-42
2021/07/28 00:48:35;;;;;;;0.98;0.85;;;;;;;;;;5071959;28;20021;-42
2021/07/28 00:51:00;;;;;;;1.92;1.13;;;;;;;;;;5072043;28;20017;-41
2021/07/28 00:53:26;;;;;;;2.58;1.27;;;;;;;;;;5072194;28;20494;-42
2021/07/28 00:55:52;;;;;;;4.28;1.45;;;;;;;;;;5071923;28;20503;-42
2021/07/28 00:58:18;;;;;;;1.48;1.15;;;;;;;;;;5071917;28;20044;-42
2021/07/28 01:00:44;;;;;;;1.85;1.05;;;;;;;;;;5071844;28;20024;-42
2021/07/28 01:03:10;;;;;;;2.60;1.20;;;;;;;;;;5071738;28;20379;-42
2021/07/28 01:05:35;;;;;;;3.92;1.20;;;;;;;;;;5071810;28;20074;-42
2021/07/28 01:08:01;;;;;;;3.92;1.52;;;;;;;;;;5087305;28;20035;-42
2021/07/28 01:10:26;;;;;;;2.17;1.30;;;;;;;;;;5071679;28;20015;-42
2021/07/28 01:12:54;;;;;;;3.15;1.10;;;;;;;;;;5075280;28;20044;-43
2021/07/28 01:18:01;;;;;;;3.13;1.20;;;;;;;;;;5075300;28;20115;-42
2021/07/28 01:20:47;;;;;;;1.58;1.13;;;;;;;;;;5075380;28;20366;-41
2021/07/28 01:23:22;;;;;;;1.83;1.30;;;;;;;;;;5074890;28;20044;-43
2021/07/28 01:25:48;;;;;;;3.17;1.40;;;;;;;;;;5075472;28;20033;-42
2021/07/28 01:28:13;;;;;;;2.42;1.52;;;;;;;;;;5075039;28;20092;-42
2021/07/28 01:30:39;;;;;;;3.65;1.00;;;;;;;;;;5075311;28;20025;-42
2021/07/28 01:33:05;;;;;;;1.90;1.20;;;;;;;;;;5074927;28;20028;-42
2021/07/28 01:35:31;;;;;;;2.90;1.20;;;;;;;;;;5075275;28;20052;-42
2021/07/28 01:37:56;;;;;;;2.25;1.13;;;;;;;;;;5074914;28;20501;-43
2021/07/28 01:40:22;;;;;;;3.58;1.05;;;;;;;;;;5075114;28;20056;-42
2021/07/28 01:42:47;;;;;;;2.72;1.38;;;;;;;;;;5074873;28;20020;-42
2021/07/28 01:45:14;;;;;;;2.65;1.10;;;;;;;;;;5075040;28;20056;-42
2021/07/28 01:47:40;;;;;;;4.35;1.40;;;;;;;;;;5074811;28;20020;-42
2021/07/28 01:50:07;;;;;;;8.57;1.17;;;;;;;;;;5074865;28;20063;-41
2021/07/28 01:52:33;;;;;;;6.20;1.33;;;;;;;;;;5074490;28;20483;-42
2021/07/28 01:54:58;;;;;;;3.88;0.95;;;;;;;;;;5074877;28;20038;-41
2021/07/28 01:57:24;;;;;;;1.20;1.10;;;;;;;;;;5074769;28;20028;-41
2021/07/28 01:59:51;;;;;;;2.95;1.15;;;;;;;;;;5074599;28;20028;-43
2021/07/28 02:02:16;;;;;;;2.22;1.17;;;;;;;;;;5074599;28;20020;-41
2021/07/28 02:04:42;;;;;;;2.13;1.50;;;;;;;;;;5074765;28;20597;-42
2021/07/28 02:07:07;;;;;;;4.07;1.42;;;;;;;;;;5074343;28;20020;-42
2021/07/28 02:09:32;;;;;;;4.10;1.77;;;;;;;;;;5074588;28;20055;-42
2021/07/28 02:11:58;;;;;;;6.90;1.30;;;;;;;;;;5074362;28;20375;-42
2021/07/28 02:14:24;;;;;;;1.30;1.00;;;;;;;;;;5074073;28;20068;-41
2021/07/28 02:16:49;;;;;;;3.60;1.48;;;;;;;;;;5074263;28;20016;-42
2021/07/28 02:19:15;;;;;;;2.67;1.10;;;;;;;;;;5074368;28;20039;-42
2021/07/28 02:21:40;;;;;;;2.60;1.48;;;;;;;;;;5074129;28;20012;-42
2021/07/28 02:24:05;;;;;;;3.15;1.70;;;;;;;;;;5073659;28;20483;-44
2021/07/28 02:26:31;;;;;;;7.55;1.83;;;;;;;;;;5073998;28;20027;-42
2021/07/28 02:28:56;;;;;;;2.80;1.10;;;;;;;;;;5074080;28;20430;-42
2021/07/28 02:31:21;;;;;;;4.28;1.20;;;;;;;;;;5074161;28;20020;-42
2021/07/28 02:33:47;;;;;;;5.05;1.27;;;;;;;;;;5074040;28;20044;-42
2021/07/28 02:36:12;;;;;;;5.18;1.10;;;;;;;;;;5073809;28;20028;-42
2021/07/28 02:38:38;;;;;;;6.60;1.45;;;;;;;;;;5073364;28;20031;-42
2021/07/28 02:41:03;;;;;;;3.03;1.30;;;;;;;;;;5072454;28;20379;-42
2021/07/28 02:43:28;;;;;;;4.03;1.15;;;;;;;;;;5073805;28;20028;-42
2021/07/28 02:45:54;;;;;;;1.83;0.90;;;;;;;;;;5073577;28;20016;-42
2021/07/28 02:48:19;;;;;;;2.80;1.25;;;;;;;;;;5073481;28;20032;-42
2021/07/28 02:50:44;;;;;;;2.03;1.10;;;;;;;;;;5073580;28;20096;-42
2021/07/28 02:53:10;;;;;;;2.92;1.40;;;;;;;;;;5073146;28;20041;-42
2021/07/28 02:55:35;;;;;;;2.53;1.08;;;;;;;;;;5073476;28;20021;-42
2021/07/28 02:58:01;;;;;;;3.80;1.40;;;;;;;;;;5073166;28;20033;-42
2021/07/28 03:00:26;;;;;;;2.28;1.48;;;;;;;;;;5073386;28;20016;-43
2021/07/28 03:02:52;;;;;;;7.80;1.58;;;;;;;;;;5073428;28;20055;-42
2021/07/28 03:05:17;;;;;;;1.58;1.40;;;;;;;;;;5073089;28;20021;-42
2021/07/28 03:07:42;;;;;;;2.40;1.50;;;;;;;;;;5073206;28;20135;-42
2021/07/28 03:10:08;;;;;;;2.78;1.23;;;;;;;;;;5073104;28;20020;-42
2021/07/28 03:12:33;;;;;;;1.95;1.20;;;;;;;;;;5072983;28;20086;-42
2021/07/28 03:14:59;;;;;;;2.35;1.42;;;;;;;;;;5071890;28;20104;-42
2021/07/28 03:17:24;;;;;;;3.08;1.23;;;;;;;;;;5072855;28;20052;-42
2021/07/28 03:19:49;;;;;;;4.72;1.05;;;;;;;;;;5073295;28;20023;-42
2021/07/28 03:22:15;;;;;;;4.90;1.50;;;;;;;;;;5072765;28;20028;-42
2021/07/28 03:24:40;;;;;;;2.80;1.13;;;;;;;;;;5073153;28;20035;-42
2021/07/28 03:27:06;;;;;;;2.90;1.40;;;;;;;;;;5072720;28;20498;-42
2021/07/28 03:29:31;;;;;;;2.38;1.27;;;;;;;;;;5072802;28;20020;-42
2021/07/28 03:31:56;;;;;;;2.70;1.45;;;;;;;;;;5072775;28;20039;-42
2021/07/28 03:34:22;;;;;;;4.82;1.35;;;;;;;;;;5071952;28;20030;-42
2021/07/28 03:36:47;;;;;;;5.97;1.40;;;;;;;;;;5072314;28;20028;-42
2021/07/28 03:39:13;;;;;;;4.90;1.27;;;;;;;;;;5072678;28;20032;-42
2021/07/28 03:41:38;;;;;;;5.30;1.58;;;;;;;;;;5071407;28;20032;-42
2021/07/28 03:44:04;;;;;;;2.53;1.40;;;;;;;;;;5072535;28;20024;-41
2021/07/28 03:46:29;;;;;;;4.35;1.55;;;;;;;;;;5072553;28;20024;-42
2021/07/28 03:48:55;;;;;;;5.82;1.45;;;;;;;;;;5072407;28;20056;-42
2021/07/28 03:51:20;;;;;;;5.15;1.35;;;;;;;;;;5072749;28;20115;-42
2021/07/28 03:53:45;;;;;;;2.50;1.23;;;;;;;;;;5072384;28;20453;-42
2021/07/28 03:56:11;;;;;;;3.58;1.30;;;;;;;;;;5072293;28;20372;-42
2021/07/28 03:58:36;;;;;;;2.65;1.73;;;;;;;;;;5072421;28;20020;-42
2021/07/28 04:01:01;;;;;;;3.22;1.52;;;;;;;;;;5072289;28;20062;-42
2021/07/28 04:03:27;;;;;;;2.35;0.88;;;;;;;;;;5071165;28;20506;-42
2021/07/28 04:05:53;;;;;;;2.78;1.50;;;;;;;;;;5072373;28;20078;-42
2021/07/28 04:08:18;;;;;;;0.90;0.80;;;;;;;;;;5072182;28;20020;-42
2021/07/28 04:10:44;;;;;;;5.10;1.60;;;;;;;;;;5070975;28;20490;-42
2021/07/28 04:13:09;;;;;;;2.83;2.08;;;;;;;;;;5072433;28;20529;-42
2021/07/28 04:15:35;;;;;;;3.00;1.23;;;;;;;;;;5072573;28;20021;-41
2021/07/28 04:18:00;;;;;;;2.03;1.23;;;;;;;;;;5072482;28;20371;-42
2021/07/28 04:20:25;;;;;;;1.15;0.95;;;;;;;;;;5072194;28;20029;-42
2021/07/28 04:22:51;;;;;;;3.53;1.02;;;;;;;;;;5072203;28;20044;-42
2021/07/28 04:25:16;;;;;;;1.77;1.23;;;;;;;;;;5072058;28;20113;-42
2021/07/28 04:27:42;;;;;;;3.85;1.25;;;;;;;;;;5071156;28;20024;-42
2021/07/28 04:30:07;;;;;;;4.88;1.80;;;;;;;;;;5070817;28;20028;-42
2021/07/28 04:32:33;;;;;;;4.88;1.58;;;;;;;;;;5071907;28;20021;-44
2021/07/28 04:34:59;;;;;;;4.05;1.25;;;;;;;;;;5072097;28;20123;-45
2021/07/28 04:37:25;;;;;;;6.97;1.30;;;;;;;;;;5072221;28;20017;-43
2021/07/28 04:39:50;;;;;;;4.35;1.80;;;;;;;;;;5071962;28;20467;-42
2021/07/28 04:42:15;;;;;;;1.95;1.15;;;;;;;;;;5071968;28;20024;-42
2021/07/28 04:44:41;;;;;;;2.13;1.10;;;;;;;;;;5072069;28;20024;-42
2021/07/28 04:47:06;;;;;;;2.33;1.15;;;;;;;;;;5074180;28;20073;-42
2021/07/28 04:49:31;;;;;;;3.85;1.30;;;;;;;;;;5076207;28;20123;-42
2021/07/28 04:51:57;;;;;;;3.10;1.23;;;;;;;;;;5075859;28;20024;-45
2021/07/28 04:54:22;;;;;;;2.90;1.63;;;;;;;;;;5076007;28;20474;-41
2021/07/28 04:56:48;;;;;;;2.33;1.20;;;;;;;;;;5075762;28;20099;-42
2021/07/28 04:59:13;;;;;;;4.43;1.23;;;;;;;;;;5075513;28;20028;-43
2021/07/28 05:01:39;;;;;;;2.63;1.27;;;;;;;;;;5075633;28;20040;-42
2021/07/28 05:04:05;;;;;;;2.08;1.08;;;;;;;;;;5075801;28;20028;-42
2021/07/28 05:06:31;;;;;;;4.80;1.55;;;;;;;;;;5075535;28;20101;-42
2021/07/28 05:08:56;;;;;;;3.95;1.40;;;;;;;;;;5074584;28;20063;-42
2021/07/28 05:11:21;;;;;;;5.35;1.55;;;;;;;;;;5075591;28;20375;-42
2021/07/28 05:13:47;;;;;;;2.95;1.23;;;;;;;;;;5075326;28;20048;-42
2021/07/28 05:16:12;;;;;;;4.35;1.70;;;;;;;;;;5074098;28;20016;-42
2021/07/28 05:18:37;;;;;;;2.42;1.40;;;;;;;;;;5075503;28;20531;-44
2021/07/28 05:21:03;;;;;;;3.35;1.77;;;;;;;;;;5075182;28;20024;-42
2021/07/28 05:23:28;;;;;;;2.45;1.60;;;;;;;;;;5075245;28;20031;-42
2021/07/28 05:25:53;;;;;;;2.90;1.20;;;;;;;;;;5074281;28;20023;-42
2021/07/28 05:28:19;;;;;;;4.60;1.30;;;;;;;;;;5073751;28;20475;-42
2021/07/28 05:30:44;;;;;;;1.23;1.08;;;;;;;;;;5075062;28;20024;-42
2021/07/28 05:33:10;;;;;;;2.60;1.52;;;;;;;;;;5074902;28;20040;-42
2021/07/28 05:35:35;;;;;;;2.83;1.35;;;;;;;;;;5074967;28;20013;-42
2021/07/28 05:38:01;;;;;;;1.83;1.38;;;;;;;;;;5074894;28;20111;-42
2021/07/28 05:40:27;;;;;;;3.70;1.05;;;;;;;;;;5074938;28;20012;-41
2021/07/28 05:42:52;;;;;;;3.53;1.30;;;;;;;;;;5074780;28;20497;-42
2021/07/28 05:45:18;;;;;;;6.63;1.63;;;;;;;;;;5075044;28;20020;-42
2021/07/28 05:47:45;;;;;;;5.97;1.60;;;;;;;;;;5075025;28;20483;-42
2021/07/28 05:50:11;;;;;;;3.00;1.35;;;;;;;;;;5074902;28;20024;-42
2021/07/28 05:52:36;;;;;;;4.65;1.58;;;;;;;;;;5074522;28;20115;-41
2021/07/28 05:55:02;;;;;;;3.63;1.63;;;;;;;;;;5074967;28;20560;-42
2021/07/28 05:57:27;;;;;;;3.45;1.05;;;;;;;;;;5073968;28;20031;-42
2021/07/28 05:59:52;;;;;;;2.95;1.38;;;;;;;;;;5074643;28;20021;-42
2021/07/28 06:02:18;;;;;;;6.82;1.50;;;;;;;;;;5074787;28;20035;-42
2021/07/28 06:04:43;;;;;;;4.10;1.42;;;;;;;;;;5074830;28;20070;-42
2021/07/28 06:07:09;;;;;;;5.00;1.10;;;;;;;;;;5073114;28;20131;-41
2021/07/28 06:09:35;;;;;;;4.85;1.05;;;;;;;;;;5074854;28;20481;-41
2021/07/28 06:12:00;;;;;;;2.67;1.30;;;;;;;;;;5074329;28;20506;-41
2021/07/28 06:14:26;;;;;;;3.85;1.40;;;;;;;;;;5074513;28;20043;-41
2021/07/28 06:16:51;;;;;;;4.45;1.17;;;;;;;;;;5074579;28;20463;-41
2021/07/28 06:19:16;;;;;;;3.17;1.88;;;;;;;;;;5074403;28;20024;-41
2021/07/28 06:21:42;;;;;;;2.15;1.58;;;;;;;;;;5074254;28;20082;-41
2021/07/28 06:24:07;;;;;;;3.67;1.50;;;;;;;;;;5074474;28;20031;-42
2021/07/28 06:26:33;;;;;;;1.40;1.10;;;;;;;;;;5073893;28;20119;-42
2021/07/28 06:28:58;;;;;;;2.35;1.50;;;;;;;;;;5074156;28;20031;-41
2021/07/28 06:31:23;;;;;;;1.70;1.58;;;;;;;;;;5073987;28;20386;-41
2021/07/28 06:33:49;;;;;;;3.13;1.67;;;;;;;;;;5073723;28;20467;-42
2021/07/28 06:36:14;;;;;;;2.92;1.90;;;;;;;;;;5074187;28;20099;-42
2021/07/28 06:38:39;;;;;;;6.03;1.63;;;;;;;;;;5073766;28;20012;-42
2021/07/28 06:41:06;;;;;;;2.42;1.17;;;;;;;;;;5072522;28;20029;-42
2021/07/28 06:43:31;;;;;;;5.25;1.60;;;;;;;;;;5074123;28;20063;-42
2021/07/28 06:45:57;;;;;;;2.78;1.45;;;;;;;;;;5073661;28;20021;-42
2021/07/28 06:48:23;;;;;;;1.73;1.30;;;;;;;;;;5073758;28;20123;-42
2021/07/28 06:50:48;;;;;;;2.95;1.75;;;;;;;;;;5073855;28;20115;-42
2021/07/28 06:53:13;;;;;;;5.78;2.00;;;;;;;;;;5073252;28;20040;-42
2021/07/28 06:55:39;;;;;;;3.65;1.30;;;;;;;;;;5073815;28;20074;-42
2021/07/28 06:58:04;;;;;;;3.85;1.65;;;;;;;;;;5073266;28;20100;-42
2021/07/28 07:00:32;;;;;;;3.35;1.45;;;;;;;;;;5073685;28;20103;-42
2021/07/28 07:02:58;;;;;;;1.85;1.33;;;;;;;;;;5073575;28;20028;-42
2021/07/28 07:05:23;;;;;;;2.65;1.48;;;;;;;;;;5073460;28;20035;-42
2021/07/28 07:07:50;;;;;;;3.42;1.67;;;;;;;;;;5073480;28;20024;-42
2021/07/28 07:10:16;;;;;;;6.38;1.50;;;;;;;;;;5072847;28;20025;-42
2021/07/28 07:12:41;;;;;;;5.18;1.67;;;;;;;;;;5073153;28;20035;-42
2021/07/28 07:15:08;;;;;;;1.98;1.55;;;;;;;;;;5073289;28;20029;-42
2021/07/28 07:17:34;;;;;;;6.55;1.70;;;;;;;;;;5072976;28;20032;-42
2021/07/28 07:19:59;;;;;;;2.30;1.58;;;;;;;;;;5073040;28;20033;-42
2021/07/28 07:22:24;;;;;;;3.35;1.58;;;;;;;;;;5072821;28;20024;-42
2021/07/28 07:24:50;;;;;;;4.60;1.60;;;;;;;;;;5073216;28;20032;-42
2021/07/28 07:27:15;;;;;;;4.05;1.95;;;;;;;;;;5071565;28;20017;-42
2021/07/28 07:29:41;;;;;;;4.63;1.70;;;;;;;;;;5072765;28;20039;-42
2021/07/28 07:32:06;;;;;;;2.28;1.60;;;;;;;;;;5072695;28;20024;-42
2021/07/28 07:34:32;;;;;;;8.98;1.98;;;;;;;;;;5073031;28;20066;-42
2021/07/28 07:36:57;;;;;;;5.65;2.00;;;;;;;;;;5072725;28;20032;-42
2021/07/28 07:39:23;;;;;;;6.60;1.33;;;;;;;;;;5072890;28;20024;-42
2021/07/28 07:41:48;;;;;;;13.45;1.70;;;;;;;;;;5072894;28;20012;-42
2021/07/28 07:44:14;;;;;;;3.70;1.73;;;;;;;;;;5072556;28;20462;-41
2021/07/28 07:46:39;;;;;;;6.47;1.67;;;;;;;;;;5072572;28;20028;-42
2021/07/28 07:49:05;;;;;;;2.90;1.05;;;;;;;;;;5072714;28;20448;-42
2021/07/28 07:51:31;;;;;;;3.00;1.65;;;;;;;;;;5072848;28;20439;-42
2021/07/28 07:53:59;;;;;;;5.00;1.88;;;;;;;;;;5072308;28;20079;-42
2021/07/28 07:56:24;;;;;;;3.65;1.77;;;;;;;;;;5072462;28;20031;-42
2021/07/28 07:58:50;;;;;;;3.15;1.80;;;;;;;;;;5072641;28;20024;-42
2021/07/28 08:01:16;;;;;;;4.43;1.83;;;;;;;;;;5072375;28;20364;-44
2021/07/28 08:03:41;;;;;;;4.97;1.50;;;;;;;;;;5072436;28;20119;-42
2021/07/28 08:06:07;;;;;;;5.22;1.80;;;;;;;;;;5072212;28;20044;-42
2021/07/28 08:08:33;;;;;;;5.25;1.60;;;;;;;;;;5072618;28;20055;-42
2021/07/28 08:11:00;;;;;;;3.13;1.55;;;;;;;;;;5072641;28;20029;-42
2021/07/28 08:13:25;;;;;;;7.30;2.40;;;;;;;;;;5072227;28;20118;-42
2021/07/28 08:15:51;;;;;;;6.20;2.08;;;;;;;;;;5072369;28;20048;-42
2021/07/28 08:18:17;;;;;;;3.08;1.65;;;;;;;;;;5072113;28;20036;-41
2021/07/28 08:20:43;;;;;;;8.00;2.30;;;;;;;;;;5073479;28;20036;-42
2021/07/28 08:23:08;;;;;;;7.32;2.10;;;;;;;;;;5078808;28;20039;-42
2021/07/28 08:25:34;;;;;;;6.03;1.98;;;;;;;;;;5078836;28;20099;-42
2021/07/28 08:27:59;;;;;;;6.22;1.98;;;;;;;;;;5078771;28;20048;-42
2021/07/28 08:30:25;;;;;;;3.45;1.92;;;;;;;;;;5078760;28;20020;-42
2021/07/28 08:32:50;;;;;;;8.70;2.03;;;;;;;;;;5078966;28;20037;-42
2021/07/28 08:35:15;;;;;;;6.70;2.28;;;;;;;;;;5078704;28;20490;-41
2021/07/28 08:37:41;;;;;;;7.00;2.45;;;;;;;;;;5078711;28;20024;-42
2021/07/28 08:40:14;;;;;;;5.03;2.40;;;;;;;;;;5078636;28;20020;-42
2021/07/28 08:42:41;;;;;;;4.32;1.92;;;;;;;;;;5078767;28;20021;-42
2021/07/28 08:45:06;;;;;;;7.18;2.22;;;;;;;;;;5078640;28;20028;-42
2021/07/28 08:47:33;;;;;;;5.90;2.40;;;;;;;;;;5078539;28;20029;-42
2021/07/28 08:49:58;;;;;;;9.57;2.55;;;;;;;;;;5078816;28;20023;-42
2021/07/28 08:52:25;;;;;;;3.78;2.13;;;;;;;;;;5078571;28;20403;-42
2021/07/28 08:54:51;;;;;;;10.57;2.80;;;;;;;;;;5078577;28;20407;-42
2021/07/28 08:57:16;;;;;;;6.35;2.50;;;;;;;;;;5078406;28;20117;-42
2021/07/28 08:59:42;;;;;;;9.63;2.88;;;;;;;;;;5078886;28;20052;-41
2021/07/28 09:02:07;;;;;;;6.30;3.10;;;;;;;;;;5078337;28;20078;-41
2021/07/28 09:04:32;;;;;;;10.35;2.72;;;;;;;;;;5078370;28;20039;-42
2021/07/28 09:06:58;;;;;;;8.07;3.28;;;;;;;;;;5078480;28;20074;-40
2021/07/28 09:09:23;;;;;;;9.02;3.38;;;;;;;;;;5078312;28;20020;-42
2021/07/28 09:11:56;;;;;;;8.00;3.30;;;;;;;;;;5078819;28;20356;-42
2021/07/28 09:14:23;;;;;;;;;;;;;;;;;;5078732;28;20037;-41
2021/07/28 09:16:49;;;;;;;5.88;3.03;;;;;;;;;;5078333;28;19904;-42
2021/07/28 09:19:35;;;;;;;13.75;4.43;;;;;;;;;;5078571;28;20043;-41
2021/07/28 09:22:04;;;;;;;5.25;3.42;;;;;;;;;;5078355;28;20028;-42
2021/07/28 09:24:29;;;;;;;6.72;3.65;;;;;;;;;;5078107;28;20024;-42
2021/07/28 09:26:55;;;;;;;10.13;4.05;;;;;;;;;;5078568;28;20028;-42
2021/07/28 09:29:24;;;;;;;4.85;3.13;;;;;;;;;;5078302;28;20490;-41
2021/07/28 09:31:51;;;;;;;6.18;3.78;;;;;;;;;;5077829;28;20025;-42
2021/07/28 09:34:23;;;;;;;12.10;4.32;;;;;;;;;;5074998;28;20043;-42
2021/07/28 09:36:50;;;;;;;7.75;3.33;;;;;;;;;;5075199;28;20077;-41
2021/07/28 09:39:30;;;;;;;7.30;3.45;;;;;;;;;;5074957;28;20103;-42
2021/07/28 09:41:57;;;;;;;6.45;3.20;;;;;;;;;;5090545;28;20089;-41
2021/07/28 09:44:32;;;;;;;11.43;4.00;;;;;;;;;;5074654;28;20039;-41
2021/07/28 09:47:11;;;;;;;9.32;4.00;;;;;;;;;;5074728;28;20033;-41
2021/07/28 09:49:39;;;;;;;8.07;3.53;;;;;;;;;;5074844;28;20036;-41
2021/07/28 09:52:17;;;;;;;12.13;4.20;;;;;;;;;;5074253;28;20090;-41
2021/07/28 09:54:43;;;;;;;6.53;3.13;;;;;;;;;;5074767;28;20045;-41
2021/07/28 09:57:12;;;;;;;8.73;3.45;;;;;;;;;;5073203;28;20383;-42
2021/07/28 09:59:39;;;;;;;8.93;4.07;;;;;;;;;;5074865;28;20039;-40
2021/07/28 10:02:04;;;;;;;7.05;3.58;;;;;;;;;;5073283;28;20016;-42
2021/07/28 10:04:31;;;;;;;8.50;3.95;;;;;;;;;;5074402;28;20032;-41
2021/07/28 10:06:57;;;;;;;9.73;3.70;;;;;;;;;;5074727;28;20108;-41
2021/07/28 10:09:28;;;;;;;9.63;2.80;;;;;;;;;;5074613;28;20104;-42
2021/07/28 10:11:57;;;;;;;7.30;3.42;;;;;;;;;;5089900;28;20078;-41
2021/07/28 10:14:23;;;;;;;4.45;3.30;;;;;;;;;;5074143;28;20078;-41
2021/07/28 10:16:48;;;;;;;9.13;3.42;;;;;;;;;;5074347;28;20024;-41
2021/07/28 10:19:15;;;;;;;5.30;3.10;;;;;;;;;;5074424;28;20460;-41
2021/07/28 10:21:41;;;;;;;6.75;3.72;;;;;;;;;;5074219;28;20021;-41
2021/07/28 10:24:06;;;;;;;14.00;3.17;;;;;;;;;;5074176;28;20488;-41
2021/07/28 10:26:42;;;;;;;6.30;3.95;;;;;;;;;;5074275;28;20506;-41
2021/07/28 10:29:08;;;;;;;8.20;4.30;;;;;;;;;;5073976;28;20021;-41
2021/07/28 10:31:43;;;;;;;10.00;4.22;;;;;;;;;;5073977;28;20028;-41
2021/07/28 10:34:19;;;;;;;8.60;3.47;;;;;;;;;;5073707;28;20041;-41
2021/07/28 10:36:45;;;;;;;5.97;3.65;;;;;;;;;;5073883;28;20028;-41
2021/07/28 10:39:11;;;;;;;7.72;3.90;;;;;;;;;;5074097;28;20032;-41
2021/07/28 10:41:41;;;;;;;7.22;3.65;;;;;;;;;;5073793;28;20036;-41
2021/07/28 10:44:11;;;;;;;6.80;3.20;;;;;;;;;;5088770;28;20039;-41
2021/07/28 10:46:57;;;;;;;4.68;2.63;;;;;;;;;;5073728;28;20475;-42
2021/07/28 10:49:29;;;;;;;7.88;4.80;;;;;;;;;;5073058;28;20048;-41
2021/07/28 10:51:55;;;;;;;8.82;4.20;;;;;;;;;;5073327;28;20023;-40
2021/07/28 10:54:39;;;;;;;6.47;4.45;;;;;;;;;;5073490;28;20071;-41
2021/07/28 10:57:09;;;;;;;10.35;5.20;;;;;;;;;;5073333;28;20356;-41
2021/07/28 10:59:43;;;;;;;8.23;4.20;;;;;;;;;;5073306;28;20104;-41
2021/07/28 11:02:09;;;;;;;7.72;3.72;;;;;;;;;;5073206;28;20032;-41
2021/07/28 11:04:34;;;;;;;11.52;4.63;;;;;;;;;;5073159;28;20013;-41
2021/07/28 11:07:00;;;;;;;6.60;4.55;;;;;;;;;;5073269;28;20119;-41
2021/07/28 11:09:28;;;;;;;8.65;3.90;;;;;;;;;;5055574;28;20099;-41
2021/07/28 11:11:53;;;;;;;10.60;3.63;;;;;;;;;;5073306;28;20090;-41
2021/07/28 11:14:19;;;;;;;10.40;5.25;;;;;;;;;;5073008;28;20032;-42
2021/07/28 11:16:52;;;;;;;8.70;4.57;;;;;;;;;;5071749;28;20110;-41
2021/07/28 11:19:19;;;;;;;9.07;4.57;;;;;;;;;;5072923;28;20056;-41
2021/07/28 11:21:45;;;;;;;9.52;4.70;;;;;;;;;;5073094;28;20017;-41
2021/07/28 11:24:11;;;;;;;8.90;4.10;;;;;;;;;;5073124;28;20077;-41
2021/07/28 11:26:37;;;;;;;6.82;3.55;;;;;;;;;;5072685;28;20489;-40
2021/07/28 11:29:07;;;;;;;15.82;3.92;;;;;;;;;;5073018;28;20121;-42
2021/07/28 11:31:40;;;;;;;6.78;3.15;;;;;;;;;;5072767;28;20027;-41
2021/07/28 11:34:10;;;;;;;11.02;4.55;;;;;;;;;;5072805;28;20483;-41
2021/07/28 11:36:36;;;;;;;9.10;4.68;;;;;;;;;;5072895;28;20035;-41
2021/07/28 11:39:08;;;;;;;6.15;3.97;;;;;;;;;;5072597;28;20024;-41
2021/07/28 11:41:34;;;;;;;8.10;3.75;;;;;;;;;;5072576;28;20032;-41
2021/07/28 11:44:00;;;;;;;11.50;4.45;;;;;;;;;;5072615;28;20027;-41
2021/07/28 11:46:25;;;;;;;7.43;4.13;;;;;;;;;;5072460;28;20490;-41
2021/07/28 11:48:55;;;;;;;10.43;3.90;;;;;;;;;;5072810;28;20021;-41
2021/07/28 11:51:28;;;;;;;7.97;4.47;;;;;;;;;;5072138;28;20032;-42
2021/07/28 11:54:05;;;;;;;8.75;4.65;;;;;;;;;;5087867;28;20056;-41
2021/07/28 11:56:30;;;;;;;6.63;3.63;;;;;;;;;;5070505;28;20029;-41
2021/07/28 11:58:56;;;;;;;7.20;3.97;;;;;;;;;;5072501;28;20021;-41
2021/07/28 12:01:21;;;;;;;15.50;4.78;;;;;;;;;;5072279;28;20043;-42
2021/07/28 12:03:59;;;;;;;9.00;4.40;;;;;;;;;;5072351;28;20114;-41
2021/07/28 12:06:28;;;;;;;7.53;3.92;;;;;;;;;;5072164;28;20025;-41
2021/07/28 12:09:04;;;;;;;7.97;4.38;;;;;;;;;;5072444;28;20032;-41
2021/07/28 12:11:29;;;;;;;7.80;4.15;;;;;;;;;;5071415;28;20020;-41
2021/07/28 12:14:01;;;;;;;5.05;3.38;;;;;;;;;;5072279;28;20543;-41
2021/07/28 12:16:38;;;;;;;9.50;3.97;;;;;;;;;;5072138;28;20498;-41
2021/07/28 12:19:05;;;;;;;11.20;4.20;;;;;;;;;;5071041;28;20036;-41
2021/07/28 12:21:50;;;;;;;7.35;4.30;;;;;;;;;;5071983;28;20111;-41
2021/07/28 12:24:16;;;;;;;7.85;4.00;;;;;;;;;;5072010;28;20032;-41
2021/07/28 12:26:48;;;;;;;8.02;3.75;;;;;;;;;;5070934;28;20016;-41
2021/07/28 12:29:37;;;;;;;11.37;4.30;;;;;;;;;;5072121;28;20036;-42
2021/07/28 12:32:12;;;;;;;3.20;2.47;;;;;;;;;;5072216;28;20474;-41
2021/07/28 12:34:39;;;;;;;5.25;3.65;;;;;;;;;;5071946;28;20041;-41
2021/07/28 12:37:17;;;;;;;10.18;3.65;;;;;;;;;;5071992;28;20023;-41
2021/07/28 12:39:42;;;;;;;7.78;3.10;;;;;;;;;;5070851;28;20078;-41
2021/07/28 12:42:08;;;;;;;10.35;5.20;;;;;;;;;;5072325;28;20021;-41
2021/07/28 12:44:33;;;;;;;8.85;4.40;;;;;;;;;;5071860;28;20021;-42
2021/07/28 12:46:59;;;;;;;6.28;3.63;;;;;;;;;;5071935;28;20020;-41
2021/07/28 12:49:24;;;;;;;9.55;3.83;;;;;;;;;;5071862;28;20020;-41
2021/07/28 12:51:50;;;;;;;9.75;4.60;;;;;;;;;;5070743;28;20021;-41
2021/07/28 12:54:15;;;;;;;5.43;4.32;;;;;;;;;;5071662;28;20064;-41
2021/07/28 12:56:41;;;;;;;9.57;3.85;;;;;;;;;;5072112;28;20494;-41
2021/07/28 12:59:07;;;;;;;9.52;3.50;;;;;;;;;;5071885;28;20324;-41
2021/07/28 13:01:32;;;;;;;8.13;3.95;;;;;;;;;;5071755;28;20032;-41
2021/07/28 13:03:59;;;;;;;7.70;3.85;;;;;;;;;;5072026;28;20038;-42
2021/07/28 13:06:24;;;;;;;8.63;4.47;;;;;;;;;;5071595;28;20107;-41
2021/07/28 13:08:50;;;;;;;5.15;2.35;;;;;;;;;;5075303;28;20108;-41
2021/07/28 13:11:15;;;;;;;7.00;3.83;;;;;;;;;;5075336;28;20027;-41
2021/07/28 13:13:41;;;;;;;6.93;3.25;;;;;;;;;;5075424;28;20036;-43
2021/07/28 13:16:07;;;;;;;6.43;3.10;;;;;;;;;;5075494;28;20019;-41
2021/07/28 13:18:33;;;;;;;7.68;3.65;;;;;;;;;;5075259;28;20031;-41
2021/07/28 13:20:58;;;;;;;12.40;3.88;;;;;;;;;;5075356;28;20029;-40
2021/07/28 13:23:23;;;;;;;14.05;4.35;;;;;;;;;;5075471;28;20035;-42
2021/07/28 13:25:49;;;;;;;10.00;3.85;;;;;;;;;;5075181;28;20096;-41
2021/07/28 13:28:15;;;;;;;11.48;4.25;;;;;;;;;;5075143;28;20086;-41
2021/07/28 13:30:40;;;;;;;7.20;3.38;;;;;;;;;;5075155;28;20013;-42
2021/07/28 13:33:06;;;;;;;11.77;3.95;;;;;;;;;;5075027;28;20040;-42
2021/07/28 13:35:31;;;;;;;10.38;3.90;;;;;;;;;;5075085;28;20028;-41
2021/07/28 13:37:57;;;;;;;3.72;2.83;;;;;;;;;;5074954;28;20032;-41
2021/07/28 13:40:23;;;;;;;7.82;3.83;;;;;;;;;;5074903;28;20081;-41
2021/07/28 13:42:49;;;;;;;5.35;2.08;;;;;;;;;;5074955;28;20025;-41
2021/07/28 13:45:15;;;;;;;9.13;3.72;;;;;;;;;;5075187;28;20025;-41
2021/07/28 13:47:43;;;;;;;9.43;3.65;;;;;;;;;;5074781;28;20051;-41
2021/07/28 13:50:09;;;;;;;9.07;3.47;;;;;;;;;;5074844;28;20021;-41
2021/07/28 13:52:34;;;;;;;4.43;3.42;;;;;;;;;;5074675;28;20134;-41
2021/07/28 13:55:00;;;;;;;6.15;3.97;;;;;;;;;;5073502;28;20045;-41
2021/07/28 13:57:25;;;;;;;13.57;5.00;;;;;;;;;;5074842;28;20021;-40
2021/07/28 13:59:51;;;;;;;12.30;3.88;;;;;;;;;;5074731;28;20025;-42
2021/07/28 14:02:18;;;;;;;2.67;2.22;;;;;;;;;;5074756;28;20025;-41
2021/07/28 14:04:44;;;;;;;3.67;1.35;;;;;;;;;;5074574;28;20070;-41
2021/07/28 14:07:10;;;;;;;8.98;2.90;;;;;;;;;;5074701;28;20024;-41
2021/07/28 14:09:35;;;;;;;11.15;3.85;;;;;;;;;;5074831;28;20040;-41
2021/07/28 14:12:01;;;;;;;12.88;3.25;;;;;;;;;;5074720;28;20081;-41
2021/07/28 14:14:28;;;;;;;7.38;3.42;;;;;;;;;;5074100;28;20032;-42
2021/07/28 14:16:53;;;;;;;8.00;3.45;;;;;;;;;;5074311;28;20036;-41
2021/07/28 14:19:19;;;;;;;11.88;3.75;;;;;;;;;;5072063;28;20174;-41
2021/07/28 14:21:45;;;;;;;7.45;4.22;;;;;;;;;;5074573;28;20149;-42
2021/07/28 14:24:11;;;;;;;5.65;3.05;;;;;;;;;;5074468;28;20020;-41
2021/07/28 14:26:36;;;;;;;10.43;3.85;;;;;;;;;;5074123;28;20024;-42
2021/07/28 14:29:02;;;;;;;9.27;3.05;;;;;;;;;;5074357;28;20379;-41
2021/07/28 14:31:28;;;;;;;10.02;3.63;;;;;;;;;;5074276;28;20516;-42
2021/07/28 14:33:53;;;;;;;11.75;3.22;;;;;;;;;;5074188;28;20086;-41
2021/07/28 14:36:18;;;;;;;8.73;3.42;;;;;;;;;;5073857;28;20027;-41
2021/07/28 14:38:44;;;;;;;11.35;4.00;;;;;;;;;;5073821;28;20025;-42
2021/07/28 14:41:09;;;;;;;15.55;4.93;;;;;;;;;;5073887;28;20025;-42
2021/07/28 14:43:35;;;;;;;6.47;3.03;;;;;;;;;;5074008;28;20056;-43